sensor_id;sensor_type;location;lat;lon;timestamp;P1;durP1;ratioP1;P2;durP2;ratioP2
76259;SDS011;65076;52.362;6.588;2023-08-01T00:00:03;6.30;;;3.25;;
76259;SDS011;65076;52.362;6.588;2023-08-01T00:02:34;5.70;;;3.40;;
76259;SDS011;65076;52.362;6.588;2023-08-01T00:07:34;5.03;;;3.30;;
76259;SDS011;65076;52.362;6.588;2023-08-01T00:10:04;5.78;;;2.85;;
76259;SDS011;65076;52.362;6.588;2023-08-01T00:12:33;5.63;;;3.15;;
76259;SDS011;65076;52.362;6.588;2023-08-01T00:15:01;5.95;;;2.97;;
76259;SDS011;65076;52.362;6.588;2023-08-01T00:17:30;5.13;;;2.78;;
76259;SDS011;65076;52.362;6.588;2023-08-01T00:19:58;4.70;;;3.00;;
76259;SDS011;65076;52.362;6.588;2023-08-01T00:22:27;6.53;;;3.47;;
76259;SDS011;65076;52.362;6.588;2023-08-01T00:24:56;6.82;;;2.97;;
76259;SDS011;65076;52.362;6.588;2023-08-01T00:27:24;6.70;;;3.45;;
76259;SDS011;65076;52.362;6.588;2023-08-01T00:29:52;7.88;;;4.38;;
76259;SDS011;65076;52.362;6.588;2023-08-01T00:32:20;7.35;;;3.40;;
76259;SDS011;65076;52.362;6.588;2023-08-01T00:34:49;7.00;;;3.80;;
76259;SDS011;65076;52.362;6.588;2023-08-01T00:37:18;5.05;;;3.03;;
76259;SDS011;65076;52.362;6.588;2023-08-01T00:39:47;6.93;;;4.00;;
76259;SDS011;65076;52.362;6.588;2023-08-01T00:42:15;8.13;;;3.80;;
76259;SDS011;65076;52.362;6.588;2023-08-01T00:44:44;6.55;;;3.72;;
76259;SDS011;65076;52.362;6.588;2023-08-01T00:47:14;7.93;;;4.90;;
76259;SDS011;65076;52.362;6.588;2023-08-01T00:49:42;5.63;;;3.30;;
76259;SDS011;65076;52.362;6.588;2023-08-01T00:52:10;8.00;;;3.83;;
76259;SDS011;65076;52.362;6.588;2023-08-01T00:54:38;7.57;;;4.10;;
76259;SDS011;65076;52.362;6.588;2023-08-01T00:57:08;9.00;;;5.43;;
76259;SDS011;65076;52.362;6.588;2023-08-01T00:59:37;7.53;;;3.72;;
76259;SDS011;65076;52.362;6.588;2023-08-01T01:02:05;7.57;;;3.72;;
76259;SDS011;65076;52.362;6.588;2023-08-01T01:04:33;6.82;;;3.50;;
76259;SDS011;65076;52.362;6.588;2023-08-01T01:07:02;4.68;;;3.38;;
76259;SDS011;65076;52.362;6.588;2023-08-01T01:09:34;7.43;;;3.38;;
76259;SDS011;65076;52.362;6.588;2023-08-01T01:12:02;5.80;;;2.90;;
76259;SDS011;65076;52.362;6.588;2023-08-01T01:14:32;5.28;;;2.90;;
76259;SDS011;65076;52.362;6.588;2023-08-01T01:17:00;4.35;;;2.83;;
76259;SDS011;65076;52.362;6.588;2023-08-01T01:19:28;6.43;;;2.78;;
76259;SDS011;65076;52.362;6.588;2023-08-01T01:21:57;5.68;;;2.90;;
76259;SDS011;65076;52.362;6.588;2023-08-01T01:24:26;6.28;;;3.15;;
76259;SDS011;65076;52.362;6.588;2023-08-01T01:26:55;4.80;;;3.25;;
76259;SDS011;65076;52.362;6.588;2023-08-01T01:29:26;7.95;;;3.40;;
76259;SDS011;65076;52.362;6.588;2023-08-01T01:31:55;6.25;;;3.30;;
76259;SDS011;65076;52.362;6.588;2023-08-01T01:34:26;6.47;;;3.78;;
76259;SDS011;65076;52.362;6.588;2023-08-01T01:36:57;7.03;;;3.35;;
76259;SDS011;65076;52.362;6.588;2023-08-01T01:39:25;6.90;;;3.50;;
76259;SDS011;65076;52.362;6.588;2023-08-01T01:41:53;5.05;;;3.13;;
76259;SDS011;65076;52.362;6.588;2023-08-01T01:44:21;5.40;;;3.40;;
76259;SDS011;65076;52.362;6.588;2023-08-01T01:46:49;7.00;;;3.28;;
76259;SDS011;65076;52.362;6.588;2023-08-01T01:49:17;5.18;;;2.83;;
76259;SDS011;65076;52.362;6.588;2023-08-01T01:51:45;4.97;;;3.80;;
76259;SDS011;65076;52.362;6.588;2023-08-01T01:54:14;7.05;;;3.38;;
76259;SDS011;65076;52.362;6.588;2023-08-01T01:56:42;7.35;;;3.15;;
76259;SDS011;65076;52.362;6.588;2023-08-01T01:59:10;5.65;;;2.85;;
76259;SDS011;65076;52.362;6.588;2023-08-01T02:01:38;9.55;;;3.78;;
76259;SDS011;65076;52.362;6.588;2023-08-01T02:04:06;5.22;;;3.13;;
76259;SDS011;65076;52.362;6.588;2023-08-01T02:06:34;6.55;;;3.50;;
76259;SDS011;65076;52.362;6.588;2023-08-01T02:09:02;5.05;;;2.90;;
76259;SDS011;65076;52.362;6.588;2023-08-01T02:11:32;6.10;;;3.10;;
76259;SDS011;65076;52.362;6.588;2023-08-01T02:14:00;6.78;;;3.10;;
76259;SDS011;65076;52.362;6.588;2023-08-01T02:16:29;8.07;;;3.15;;
76259;SDS011;65076;52.362;6.588;2023-08-01T02:18:57;6.88;;;3.03;;
76259;SDS011;65076;52.362;6.588;2023-08-01T02:21:25;5.82;;;2.90;;
76259;SDS011;65076;52.362;6.588;2023-08-01T02:23:53;7.20;;;3.28;;
76259;SDS011;65076;52.362;6.588;2023-08-01T02:26:21;6.60;;;2.95;;
76259;SDS011;65076;52.362;6.588;2023-08-01T02:28:52;5.18;;;2.83;;
76259;SDS011;65076;52.362;6.588;2023-08-01T02:31:20;5.82;;;3.33;;
76259;SDS011;65076;52.362;6.588;2023-08-01T02:33:48;7.75;;;3.65;;
76259;SDS011;65076;52.362;6.588;2023-08-01T02:36:16;9.75;;;3.75;;
76259;SDS011;65076;52.362;6.588;2023-08-01T02:38:45;5.00;;;2.58;;
76259;SDS011;65076;52.362;6.588;2023-08-01T02:41:12;11.55;;;3.25;;
76259;SDS011;65076;52.362;6.588;2023-08-01T02:43:40;8.80;;;3.35;;
76259;SDS011;65076;52.362;6.588;2023-08-01T02:46:10;6.80;;;3.05;;
76259;SDS011;65076;52.362;6.588;2023-08-01T02:48:37;7.35;;;3.50;;
76259;SDS011;65076;52.362;6.588;2023-08-01T02:51:06;5.82;;;3.55;;
76259;SDS011;65076;52.362;6.588;2023-08-01T02:53:35;8.15;;;3.72;;
76259;SDS011;65076;52.362;6.588;2023-08-01T02:56:06;6.38;;;3.88;;
76259;SDS011;65076;52.362;6.588;2023-08-01T02:58:36;8.38;;;3.17;;
76259;SDS011;65076;52.362;6.588;2023-08-01T03:01:05;8.07;;;3.97;;
76259;SDS011;65076;52.362;6.588;2023-08-01T03:03:37;8.02;;;3.65;;
76259;SDS011;65076;52.362;6.588;2023-08-01T03:06:05;11.25;;;3.88;;
76259;SDS011;65076;52.362;6.588;2023-08-01T03:08:33;7.47;;;3.60;;
76259;SDS011;65076;52.362;6.588;2023-08-01T03:11:01;7.78;;;3.33;;
76259;SDS011;65076;52.362;6.588;2023-08-01T03:13:29;9.30;;;3.55;;
76259;SDS011;65076;52.362;6.588;2023-08-01T03:15:57;8.15;;;3.58;;
76259;SDS011;65076;52.362;6.588;2023-08-01T03:18:25;9.05;;;3.60;;
76259;SDS011;65076;52.362;6.588;2023-08-01T03:20:55;9.25;;;4.35;;
76259;SDS011;65076;52.362;6.588;2023-08-01T03:23:23;5.88;;;3.45;;
76259;SDS011;65076;52.362;6.588;2023-08-01T03:25:51;7.45;;;3.47;;
76259;SDS011;65076;52.362;6.588;2023-08-01T03:28:19;8.10;;;3.60;;
76259;SDS011;65076;52.362;6.588;2023-08-01T03:30:47;8.55;;;4.13;;
76259;SDS011;65076;52.362;6.588;2023-08-01T03:33:17;10.35;;;3.78;;
76259;SDS011;65076;52.362;6.588;2023-08-01T03:35:45;9.20;;;3.78;;
76259;SDS011;65076;52.362;6.588;2023-08-01T03:38:14;10.85;;;4.20;;
76259;SDS011;65076;52.362;6.588;2023-08-01T03:40:42;13.95;;;4.32;;
76259;SDS011;65076;52.362;6.588;2023-08-01T03:43:10;7.90;;;3.67;;
76259;SDS011;65076;52.362;6.588;2023-08-01T03:45:38;12.32;;;4.47;;
76259;SDS011;65076;52.362;6.588;2023-08-01T03:48:07;8.27;;;3.40;;
76259;SDS011;65076;52.362;6.588;2023-08-01T03:50:35;7.45;;;3.67;;
76259;SDS011;65076;52.362;6.588;2023-08-01T03:53:02;9.30;;;3.53;;
76259;SDS011;65076;52.362;6.588;2023-08-01T03:55:32;7.55;;;3.05;;
76259;SDS011;65076;52.362;6.588;2023-08-01T03:58:00;8.27;;;3.33;;
76259;SDS011;65076;52.362;6.588;2023-08-01T04:00:28;12.25;;;4.70;;
76259;SDS011;65076;52.362;6.588;2023-08-01T04:02:59;10.98;;;4.05;;
76259;SDS011;65076;52.362;6.588;2023-08-01T04:05:28;8.10;;;4.07;;
76259;SDS011;65076;52.362;6.588;2023-08-01T04:07:56;9.88;;;4.07;;
76259;SDS011;65076;52.362;6.588;2023-08-01T04:10:24;7.95;;;4.30;;
76259;SDS011;65076;52.362;6.588;2023-08-01T04:12:54;9.45;;;3.63;;
76259;SDS011;65076;52.362;6.588;2023-08-01T04:15:22;9.73;;;4.40;;
76259;SDS011;65076;52.362;6.588;2023-08-01T04:17:50;7.85;;;4.15;;
76259;SDS011;65076;52.362;6.588;2023-08-01T04:20:18;8.10;;;3.92;;
76259;SDS011;65076;52.362;6.588;2023-08-01T04:22:46;12.27;;;3.83;;
76259;SDS011;65076;52.362;6.588;2023-08-01T04:25:14;8.55;;;3.97;;
76259;SDS011;65076;52.362;6.588;2023-08-01T04:27:43;7.72;;;3.53;;
76259;SDS011;65076;52.362;6.588;2023-08-01T04:30:12;9.05;;;4.00;;
76259;SDS011;65076;52.362;6.588;2023-08-01T04:32:40;10.77;;;4.30;;
76259;SDS011;65076;52.362;6.588;2023-08-01T04:35:08;10.18;;;4.50;;
76259;SDS011;65076;52.362;6.588;2023-08-01T04:37:36;10.73;;;4.60;;
76259;SDS011;65076;52.362;6.588;2023-08-01T04:40:05;11.30;;;4.20;;
76259;SDS011;65076;52.362;6.588;2023-08-01T04:42:35;12.18;;;4.22;;
76259;SDS011;65076;52.362;6.588;2023-08-01T04:45:03;10.50;;;4.13;;
76259;SDS011;65076;52.362;6.588;2023-08-01T04:47:35;10.85;;;4.20;;
76259;SDS011;65076;52.362;6.588;2023-08-01T04:52:31;8.50;;;4.57;;
76259;SDS011;65076;52.362;6.588;2023-08-01T04:55:00;12.10;;;3.97;;
76259;SDS011;65076;52.362;6.588;2023-08-01T04:57:28;12.45;;;4.40;;
76259;SDS011;65076;52.362;6.588;2023-08-01T04:59:56;8.82;;;4.32;;
76259;SDS011;65076;52.362;6.588;2023-08-01T05:02:25;7.65;;;4.18;;
76259;SDS011;65076;52.362;6.588;2023-08-01T05:04:55;10.52;;;4.93;;
76259;SDS011;65076;52.362;6.588;2023-08-01T05:07:23;12.27;;;5.00;;
76259;SDS011;65076;52.362;6.588;2023-08-01T05:09:51;14.60;;;4.70;;
76259;SDS011;65076;52.362;6.588;2023-08-01T05:12:19;7.38;;;4.32;;
76259;SDS011;65076;52.362;6.588;2023-08-01T05:14:47;9.07;;;3.88;;
76259;SDS011;65076;52.362;6.588;2023-08-01T05:17:15;10.80;;;3.75;;
76259;SDS011;65076;52.362;6.588;2023-08-01T05:19:43;10.85;;;4.22;;
76259;SDS011;65076;52.362;6.588;2023-08-01T05:22:12;10.80;;;4.75;;
76259;SDS011;65076;52.362;6.588;2023-08-01T05:24:40;9.45;;;4.18;;
76259;SDS011;65076;52.362;6.588;2023-08-01T05:27:08;8.25;;;4.13;;
76259;SDS011;65076;52.362;6.588;2023-08-01T05:29:36;7.38;;;3.83;;
76259;SDS011;65076;52.362;6.588;2023-08-01T05:32:04;14.15;;;4.10;;
76259;SDS011;65076;52.362;6.588;2023-08-01T05:34:33;10.82;;;4.10;;
76259;SDS011;65076;52.362;6.588;2023-08-01T05:37:01;7.93;;;3.75;;
76259;SDS011;65076;52.362;6.588;2023-08-01T05:39:30;7.72;;;3.83;;
76259;SDS011;65076;52.362;6.588;2023-08-01T05:41:58;9.25;;;3.58;;
76259;SDS011;65076;52.362;6.588;2023-08-01T05:44:26;8.15;;;4.03;;
76259;SDS011;65076;52.362;6.588;2023-08-01T05:46:54;9.30;;;3.55;;
76259;SDS011;65076;52.362;6.588;2023-08-01T05:49:22;8.43;;;3.50;;
76259;SDS011;65076;52.362;6.588;2023-08-01T05:51:51;7.40;;;3.65;;
76259;SDS011;65076;52.362;6.588;2023-08-01T05:54:19;9.07;;;3.40;;
76259;SDS011;65076;52.362;6.588;2023-08-01T05:56:49;10.18;;;3.38;;
76259;SDS011;65076;52.362;6.588;2023-08-01T05:59:18;6.10;;;3.53;;
76259;SDS011;65076;52.362;6.588;2023-08-01T06:01:46;10.07;;;4.28;;
76259;SDS011;65076;52.362;6.588;2023-08-01T06:04:14;7.35;;;3.65;;
76259;SDS011;65076;52.362;6.588;2023-08-01T06:06:42;7.82;;;3.25;;
76259;SDS011;65076;52.362;6.588;2023-08-01T06:09:10;7.05;;;3.17;;
76259;SDS011;65076;52.362;6.588;2023-08-01T06:11:38;9.07;;;3.55;;
76259;SDS011;65076;52.362;6.588;2023-08-01T06:14:08;8.93;;;3.45;;
76259;SDS011;65076;52.362;6.588;2023-08-01T06:16:37;9.88;;;3.53;;
76259;SDS011;65076;52.362;6.588;2023-08-01T06:19:05;9.02;;;3.58;;
76259;SDS011;65076;52.362;6.588;2023-08-01T06:21:33;7.05;;;3.33;;
76259;SDS011;65076;52.362;6.588;2023-08-01T06:24:01;8.50;;;3.20;;
76259;SDS011;65076;52.362;6.588;2023-08-01T06:26:29;7.60;;;3.22;;
76259;SDS011;65076;52.362;6.588;2023-08-01T06:28:57;7.57;;;3.47;;
76259;SDS011;65076;52.362;6.588;2023-08-01T06:31:27;7.88;;;3.25;;
76259;SDS011;65076;52.362;6.588;2023-08-01T06:33:55;7.90;;;2.80;;
76259;SDS011;65076;52.362;6.588;2023-08-01T06:36:23;9.13;;;2.58;;
76259;SDS011;65076;52.362;6.588;2023-08-01T06:41:29;6.50;;;2.50;;
76259;SDS011;65076;52.362;6.588;2023-08-01T06:43:58;11.23;;;3.50;;
76259;SDS011;65076;52.362;6.588;2023-08-01T06:46:27;5.95;;;3.40;;
76259;SDS011;65076;52.362;6.588;2023-08-01T06:48:55;12.55;;;3.80;;
76259;SDS011;65076;52.362;6.588;2023-08-01T06:51:29;8.88;;;2.83;;
76259;SDS011;65076;52.362;6.588;2023-08-01T06:53:57;11.82;;;3.65;;
76259;SDS011;65076;52.362;6.588;2023-08-01T06:56:25;11.75;;;2.85;;
76259;SDS011;65076;52.362;6.588;2023-08-01T06:58:52;9.55;;;3.20;;
76259;SDS011;65076;52.362;6.588;2023-08-01T07:01:20;10.82;;;2.83;;
76259;SDS011;65076;52.362;6.588;2023-08-01T07:03:50;12.10;;;3.38;;
76259;SDS011;65076;52.362;6.588;2023-08-01T07:06:18;11.75;;;3.50;;
76259;SDS011;65076;52.362;6.588;2023-08-01T07:08:47;7.30;;;3.38;;
76259;SDS011;65076;52.362;6.588;2023-08-01T07:11:15;8.43;;;2.90;;
76259;SDS011;65076;52.362;6.588;2023-08-01T07:13:43;9.02;;;3.78;;
76259;SDS011;65076;52.362;6.588;2023-08-01T07:16:11;7.60;;;2.58;;
76259;SDS011;65076;52.362;6.588;2023-08-01T07:18:39;7.82;;;2.67;;
76259;SDS011;65076;52.362;6.588;2023-08-01T07:21:08;6.22;;;2.60;;
76259;SDS011;65076;52.362;6.588;2023-08-01T07:23:46;9.57;;;3.13;;
76259;SDS011;65076;52.362;6.588;2023-08-01T07:26:14;8.88;;;2.85;;
76259;SDS011;65076;52.362;6.588;2023-08-01T07:28:42;12.55;;;3.17;;
76259;SDS011;65076;52.362;6.588;2023-08-01T07:31:10;6.45;;;2.67;;
76259;SDS011;65076;52.362;6.588;2023-08-01T07:33:39;3.10;;;1.88;;
76259;SDS011;65076;52.362;6.588;2023-08-01T07:36:08;5.30;;;2.45;;
76259;SDS011;65076;52.362;6.588;2023-08-01T07:38:36;5.43;;;2.20;;
76259;SDS011;65076;52.362;6.588;2023-08-01T07:41:04;4.88;;;1.73;;
76259;SDS011;65076;52.362;6.588;2023-08-01T07:43:45;5.57;;;2.45;;
76259;SDS011;65076;52.362;6.588;2023-08-01T07:46:13;6.63;;;2.05;;
76259;SDS011;65076;52.362;6.588;2023-08-01T07:48:41;6.00;;;2.28;;
76259;SDS011;65076;52.362;6.588;2023-08-01T07:51:11;6.68;;;2.63;;
76259;SDS011;65076;52.362;6.588;2023-08-01T07:53:39;3.70;;;2.05;;
76259;SDS011;65076;52.362;6.588;2023-08-01T07:56:07;6.05;;;2.78;;
76259;SDS011;65076;52.362;6.588;2023-08-01T07:58:35;8.10;;;2.00;;
76259;SDS011;65076;52.362;6.588;2023-08-01T08:01:04;3.97;;;1.75;;
76259;SDS011;65076;52.362;6.588;2023-08-01T08:03:32;9.02;;;2.28;;
76259;SDS011;65076;52.362;6.588;2023-08-01T08:06:00;4.95;;;1.73;;
76259;SDS011;65076;52.362;6.588;2023-08-01T08:10:59;7.30;;;2.15;;
76259;SDS011;65076;52.362;6.588;2023-08-01T08:13:28;5.57;;;1.90;;
76259;SDS011;65076;52.362;6.588;2023-08-01T08:15:56;7.88;;;2.22;;
76259;SDS011;65076;52.362;6.588;2023-08-01T08:18:24;4.32;;;1.60;;
76259;SDS011;65076;52.362;6.588;2023-08-01T08:20:56;4.40;;;1.60;;
76259;SDS011;65076;52.362;6.588;2023-08-01T08:23:24;4.45;;;1.80;;
76259;SDS011;65076;52.362;6.588;2023-08-01T08:25:53;4.10;;;1.83;;
76259;SDS011;65076;52.362;6.588;2023-08-01T08:28:27;5.85;;;2.08;;
76259;SDS011;65076;52.362;6.588;2023-08-01T08:30:57;5.20;;;1.58;;
76259;SDS011;65076;52.362;6.588;2023-08-01T08:33:25;4.50;;;1.55;;
76259;SDS011;65076;52.362;6.588;2023-08-01T08:35:53;6.18;;;1.63;;
76259;SDS011;65076;52.362;6.588;2023-08-01T08:38:21;4.10;;;1.40;;
76259;SDS011;65076;52.362;6.588;2023-08-01T08:40:55;4.68;;;1.58;;
76259;SDS011;65076;52.362;6.588;2023-08-01T08:43:35;3.83;;;1.67;;
76259;SDS011;65076;52.362;6.588;2023-08-01T08:46:04;2.90;;;1.42;;
76259;SDS011;65076;52.362;6.588;2023-08-01T08:48:33;2.95;;;1.20;;
76259;SDS011;65076;52.362;6.588;2023-08-01T08:51:02;3.40;;;1.33;;
76259;SDS011;65076;52.362;6.588;2023-08-01T08:53:33;4.10;;;1.50;;
76259;SDS011;65076;52.362;6.588;2023-08-01T08:56:04;5.95;;;1.80;;
76259;SDS011;65076;52.362;6.588;2023-08-01T08:58:35;3.10;;;1.20;;
76259;SDS011;65076;52.362;6.588;2023-08-01T09:01:05;2.83;;;1.45;;
76259;SDS011;65076;52.362;6.588;2023-08-01T09:03:34;2.45;;;0.93;;
76259;SDS011;65076;52.362;6.588;2023-08-01T09:06:04;4.05;;;1.63;;
76259;SDS011;65076;52.362;6.588;2023-08-01T09:08:36;3.47;;;1.50;;
76259;SDS011;65076;52.362;6.588;2023-08-01T09:11:12;3.33;;;1.20;;
76259;SDS011;65076;52.362;6.588;2023-08-01T09:13:40;2.80;;;1.27;;
76259;SDS011;65076;52.362;6.588;2023-08-01T09:16:08;4.15;;;1.25;;
76259;SDS011;65076;52.362;6.588;2023-08-01T09:18:46;3.20;;;0.98;;
76259;SDS011;65076;52.362;6.588;2023-08-01T09:21:17;3.83;;;1.23;;
76259;SDS011;65076;52.362;6.588;2023-08-01T09:23:45;5.00;;;1.02;;
76259;SDS011;65076;52.362;6.588;2023-08-01T09:26:15;4.50;;;1.30;;
76259;SDS011;65076;52.362;6.588;2023-08-01T09:28:54;5.10;;;1.20;;
76259;SDS011;65076;52.362;6.588;2023-08-01T09:31:25;3.95;;;1.02;;
76259;SDS011;65076;52.362;6.588;2023-08-01T09:33:57;3.88;;;1.13;;
76259;SDS011;65076;52.362;6.588;2023-08-01T09:36:25;2.03;;;0.80;;
76259;SDS011;65076;52.362;6.588;2023-08-01T09:38:57;2.75;;;0.75;;
76259;SDS011;65076;52.362;6.588;2023-08-01T09:41:28;2.22;;;0.85;;
76259;SDS011;65076;52.362;6.588;2023-08-01T09:43:57;3.88;;;1.17;;
76259;SDS011;65076;52.362;6.588;2023-08-01T09:46:25;3.15;;;1.10;;
76259;SDS011;65076;52.362;6.588;2023-08-01T09:48:53;3.22;;;1.35;;
76259;SDS011;65076;52.362;6.588;2023-08-01T09:51:21;3.05;;;1.17;;
76259;SDS011;65076;52.362;6.588;2023-08-01T09:53:50;3.85;;;0.88;;
76259;SDS011;65076;52.362;6.588;2023-08-01T09:56:20;5.75;;;1.25;;
76259;SDS011;65076;52.362;6.588;2023-08-01T09:58:52;2.88;;;1.00;;
76259;SDS011;65076;52.362;6.588;2023-08-01T10:01:23;3.53;;;0.90;;
76259;SDS011;65076;52.362;6.588;2023-08-01T10:03:52;5.47;;;1.40;;
76259;SDS011;65076;52.362;6.588;2023-08-01T10:06:23;3.38;;;0.90;;
76259;SDS011;65076;52.362;6.588;2023-08-01T10:08:55;3.40;;;1.33;;
76259;SDS011;65076;52.362;6.588;2023-08-01T10:11:24;4.80;;;1.20;;
76259;SDS011;65076;52.362;6.588;2023-08-01T10:13:55;4.15;;;1.08;;
76259;SDS011;65076;52.362;6.588;2023-08-01T10:16:24;1.95;;;0.75;;
76259;SDS011;65076;52.362;6.588;2023-08-01T10:18:53;2.35;;;0.80;;
76259;SDS011;65076;52.362;6.588;2023-08-01T10:21:22;4.20;;;1.33;;
76259;SDS011;65076;52.362;6.588;2023-08-01T10:23:52;3.67;;;1.30;;
76259;SDS011;65076;52.362;6.588;2023-08-01T10:26:22;1.50;;;0.90;;
76259;SDS011;65076;52.362;6.588;2023-08-01T10:28:50;2.60;;;0.90;;
76259;SDS011;65076;52.362;6.588;2023-08-01T10:34:04;4.13;;;1.20;;
76259;SDS011;65076;52.362;6.588;2023-08-01T10:36:34;2.80;;;1.05;;
76259;SDS011;65076;52.362;6.588;2023-08-01T10:39:02;3.15;;;1.10;;
76259;SDS011;65076;52.362;6.588;2023-08-01T10:41:32;3.97;;;1.52;;
76259;SDS011;65076;52.362;6.588;2023-08-01T10:44:08;1.88;;;1.10;;
76259;SDS011;65076;52.362;6.588;2023-08-01T10:46:47;3.90;;;1.10;;
76259;SDS011;65076;52.362;6.588;2023-08-01T10:52:40;2.80;;;1.13;;
76259;SDS011;65076;52.362;6.588;2023-08-01T10:55:09;3.58;;;1.40;;
76259;SDS011;65076;52.362;6.588;2023-08-01T10:57:38;3.13;;;0.93;;
76259;SDS011;65076;52.362;6.588;2023-08-01T11:00:15;3.15;;;1.48;;
76259;SDS011;65076;52.362;6.588;2023-08-01T11:02:50;4.82;;;1.80;;
76259;SDS011;65076;52.362;6.588;2023-08-01T11:05:21;3.75;;;1.30;;
76259;SDS011;65076;52.362;6.588;2023-08-01T11:07:53;4.18;;;1.30;;
76259;SDS011;65076;52.362;6.588;2023-08-01T11:10:24;2.40;;;1.05;;
76259;SDS011;65076;52.362;6.588;2023-08-01T11:12:54;2.20;;;0.90;;
76259;SDS011;65076;52.362;6.588;2023-08-01T11:15:22;1.48;;;0.82;;
76259;SDS011;65076;52.362;6.588;2023-08-01T11:17:52;3.78;;;0.98;;
76259;SDS011;65076;52.362;6.588;2023-08-01T11:20:23;4.55;;;1.30;;
76259;SDS011;65076;52.362;6.588;2023-08-01T11:22:55;4.80;;;1.52;;
76259;SDS011;65076;52.362;6.588;2023-08-01T11:25:33;4.13;;;1.10;;
76259;SDS011;65076;52.362;6.588;2023-08-01T11:28:05;5.15;;;1.35;;
76259;SDS011;65076;52.362;6.588;2023-08-01T11:30:35;4.70;;;1.55;;
76259;SDS011;65076;52.362;6.588;2023-08-01T11:33:13;2.85;;;1.13;;
76259;SDS011;65076;52.362;6.588;2023-08-01T11:35:42;3.72;;;1.60;;
76259;SDS011;65076;52.362;6.588;2023-08-01T11:38:10;2.78;;;1.30;;
76259;SDS011;65076;52.362;6.588;2023-08-01T11:40:39;1.85;;;0.95;;
76259;SDS011;65076;52.362;6.588;2023-08-01T11:43:09;4.80;;;1.27;;
76259;SDS011;65076;52.362;6.588;2023-08-01T11:45:37;3.17;;;1.30;;
76259;SDS011;65076;52.362;6.588;2023-08-01T11:48:16;2.25;;;1.38;;
76259;SDS011;65076;52.362;6.588;2023-08-01T11:50:45;3.20;;;1.60;;
76259;SDS011;65076;52.362;6.588;2023-08-01T11:53:19;5.22;;;1.33;;
76259;SDS011;65076;52.362;6.588;2023-08-01T11:55:48;3.95;;;1.77;;
76259;SDS011;65076;52.362;6.588;2023-08-01T11:58:27;4.03;;;1.30;;
76259;SDS011;65076;52.362;6.588;2023-08-01T12:01:01;2.20;;;0.82;;
76259;SDS011;65076;52.362;6.588;2023-08-01T12:03:43;3.00;;;1.10;;
76259;SDS011;65076;52.362;6.588;2023-08-01T12:06:12;4.40;;;1.42;;
76259;SDS011;65076;52.362;6.588;2023-08-01T12:08:41;3.67;;;1.00;;
76259;SDS011;65076;52.362;6.588;2023-08-01T12:13:46;4.13;;;1.27;;
76259;SDS011;65076;52.362;6.588;2023-08-01T12:16:14;4.05;;;1.40;;
76259;SDS011;65076;52.362;6.588;2023-08-01T12:18:47;6.75;;;1.60;;
76259;SDS011;65076;52.362;6.588;2023-08-01T12:21:25;4.88;;;1.25;;
76259;SDS011;65076;52.362;6.588;2023-08-01T12:23:53;3.33;;;1.33;;
76259;SDS011;65076;52.362;6.588;2023-08-01T12:26:22;2.90;;;1.38;;
76259;SDS011;65076;52.362;6.588;2023-08-01T12:28:50;4.72;;;1.15;;
76259;SDS011;65076;52.362;6.588;2023-08-01T12:31:19;5.22;;;1.48;;
76259;SDS011;65076;52.362;6.588;2023-08-01T12:33:50;2.70;;;1.08;;
76259;SDS011;65076;52.362;6.588;2023-08-01T12:36:19;2.50;;;1.13;;
76259;SDS011;65076;52.362;6.588;2023-08-01T12:38:48;3.30;;;1.33;;
76259;SDS011;65076;52.362;6.588;2023-08-01T12:41:17;4.38;;;1.50;;
76259;SDS011;65076;52.362;6.588;2023-08-01T12:43:45;4.00;;;1.33;;
76259;SDS011;65076;52.362;6.588;2023-08-01T12:46:13;3.95;;;1.27;;
76259;SDS011;65076;52.362;6.588;2023-08-01T12:48:42;6.70;;;1.40;;
76259;SDS011;65076;52.362;6.588;2023-08-01T12:51:12;2.53;;;1.05;;
76259;SDS011;65076;52.362;6.588;2023-08-01T12:53:41;4.30;;;1.23;;
76259;SDS011;65076;52.362;6.588;2023-08-01T12:56:09;3.40;;;1.25;;
76259;SDS011;65076;52.362;6.588;2023-08-01T12:58:37;2.65;;;0.95;;
76259;SDS011;65076;52.362;6.588;2023-08-01T13:01:05;3.13;;;1.05;;
76259;SDS011;65076;52.362;6.588;2023-08-01T13:03:34;2.17;;;0.98;;
76259;SDS011;65076;52.362;6.588;2023-08-01T13:06:02;2.70;;;1.00;;
76259;SDS011;65076;52.362;6.588;2023-08-01T13:08:32;3.92;;;1.02;;
76259;SDS011;65076;52.362;6.588;2023-08-01T13:11:00;1.27;;;0.60;;
76259;SDS011;65076;52.362;6.588;2023-08-01T13:13:29;3.08;;;0.90;;
76259;SDS011;65076;52.362;6.588;2023-08-01T13:15:56;1.35;;;1.00;;
76259;SDS011;65076;52.362;6.588;2023-08-01T13:18:24;3.28;;;0.82;;
76259;SDS011;65076;52.362;6.588;2023-08-01T13:21:01;1.60;;;0.70;;
76259;SDS011;65076;52.362;6.588;2023-08-01T13:23:30;2.00;;;0.60;;
76259;SDS011;65076;52.362;6.588;2023-08-01T13:25:59;3.90;;;0.73;;
76259;SDS011;65076;52.362;6.588;2023-08-01T13:28:36;2.22;;;0.75;;
76259;SDS011;65076;52.362;6.588;2023-08-01T13:31:04;1.60;;;0.70;;
76259;SDS011;65076;52.362;6.588;2023-08-01T13:33:32;3.58;;;0.63;;
76259;SDS011;65076;52.362;6.588;2023-08-01T13:36:00;2.65;;;0.68;;
76259;SDS011;65076;52.362;6.588;2023-08-01T13:38:29;2.20;;;0.75;;
76259;SDS011;65076;52.362;6.588;2023-08-01T13:41:00;2.85;;;0.77;;
76259;SDS011;65076;52.362;6.588;2023-08-01T13:43:29;3.38;;;0.80;;
76259;SDS011;65076;52.362;6.588;2023-08-01T13:45:57;3.28;;;1.00;;
76259;SDS011;65076;52.362;6.588;2023-08-01T13:48:29;3.45;;;1.20;;
76259;SDS011;65076;52.362;6.588;2023-08-01T13:53:26;3.22;;;1.08;;
76259;SDS011;65076;52.362;6.588;2023-08-01T13:55:54;2.42;;;0.82;;
76259;SDS011;65076;52.362;6.588;2023-08-01T13:58:23;6.28;;;1.23;;
76259;SDS011;65076;52.362;6.588;2023-08-01T14:00:51;5.28;;;1.63;;
76259;SDS011;65076;52.362;6.588;2023-08-01T14:03:19;2.67;;;0.95;;
76259;SDS011;65076;52.362;6.588;2023-08-01T14:05:47;3.92;;;1.10;;
76259;SDS011;65076;52.362;6.588;2023-08-01T14:08:15;4.18;;;1.02;;
76259;SDS011;65076;52.362;6.588;2023-08-01T14:10:43;3.05;;;0.98;;
76259;SDS011;65076;52.362;6.588;2023-08-01T14:13:11;5.07;;;0.95;;
76259;SDS011;65076;52.362;6.588;2023-08-01T14:15:40;3.67;;;0.80;;
76259;SDS011;65076;52.362;6.588;2023-08-01T14:18:08;4.60;;;1.08;;
76259;SDS011;65076;52.362;6.588;2023-08-01T14:20:36;3.42;;;0.82;;
76259;SDS011;65076;52.362;6.588;2023-08-01T14:23:05;1.25;;;0.68;;
76259;SDS011;65076;52.362;6.588;2023-08-01T14:25:35;2.45;;;0.90;;
76259;SDS011;65076;52.362;6.588;2023-08-01T14:28:03;3.97;;;1.00;;
76259;SDS011;65076;52.362;6.588;2023-08-01T14:30:32;1.00;;;0.80;;
76259;SDS011;65076;52.362;6.588;2023-08-01T14:33:01;3.97;;;1.10;;
76259;SDS011;65076;52.362;6.588;2023-08-01T14:35:31;5.40;;;0.90;;
76259;SDS011;65076;52.362;6.588;2023-08-01T14:38:00;3.00;;;0.90;;
76259;SDS011;65076;52.362;6.588;2023-08-01T14:40:39;2.33;;;0.52;;
76259;SDS011;65076;52.362;6.588;2023-08-01T14:43:15;2.40;;;0.82;;
76259;SDS011;65076;52.362;6.588;2023-08-01T14:45:43;2.45;;;1.15;;
76259;SDS011;65076;52.362;6.588;2023-08-01T14:48:13;1.95;;;0.60;;
76259;SDS011;65076;52.362;6.588;2023-08-01T14:50:40;1.33;;;0.75;;
76259;SDS011;65076;52.362;6.588;2023-08-01T14:53:08;2.30;;;0.55;;
76259;SDS011;65076;52.362;6.588;2023-08-01T14:55:36;1.30;;;0.70;;
76259;SDS011;65076;52.362;6.588;2023-08-01T14:58:07;2.00;;;0.55;;
76259;SDS011;65076;52.362;6.588;2023-08-01T15:00:35;1.30;;;0.40;;
76259;SDS011;65076;52.362;6.588;2023-08-01T15:03:03;2.70;;;0.80;;
76259;SDS011;65076;52.362;6.588;2023-08-01T15:05:32;3.45;;;0.75;;
76259;SDS011;65076;52.362;6.588;2023-08-01T15:08:01;1.45;;;0.70;;
76259;SDS011;65076;52.362;6.588;2023-08-01T15:10:31;2.35;;;0.70;;
76259;SDS011;65076;52.362;6.588;2023-08-01T15:12:59;1.10;;;0.57;;
76259;SDS011;65076;52.362;6.588;2023-08-01T15:15:27;2.00;;;0.77;;
76259;SDS011;65076;52.362;6.588;2023-08-01T15:17:55;1.25;;;0.40;;